Time;durP1;ratioP1;P1;durP2;ratioP2;P2;SDS_P1;SDS_P2;PMS_P1;PMS_P2;Temp;Humidity;BMP_temperature;BMP_pressure;BME280_temperature;BME280_humidity;BME280_pressure;Samples;Min_cycle;Max_cycle;Signal;HPM_P1;HPM_P2
2022/05/02 00:00:11;;;;;;;4.72;3.10;;;11.10;78.30;;;;;;4951119;28;20513;-69
2022/05/02 00:02:38;;;;;;;5.28;3.15;;;11.20;77.70;;;;;;4956708;28;20028;-69
2022/05/02 00:05:05;;;;;;;4.50;2.88;;;11.20;78.30;;;;;;4957437;28;20034;-69
2022/05/02 00:07:31;;;;;;;7.65;3.40;;;11.20;79.00;;;;;;4957540;28;20034;-69
2022/05/02 00:09:56;;;;;;;5.93;3.35;;;11.20;78.70;;;;;;4953729;28;20494;-69
2022/05/02 00:12:22;;;;;;;7.07;2.67;;;11.20;78.40;;;;;;4955330;28;20128;-69
2022/05/02 00:14:48;;;;;;;8.65;3.53;;;11.20;78.60;;;;;;4950622;28;20041;-69
2022/05/02 00:17:14;;;;;;;6.28;3.75;;;11.20;78.80;;;;;;4944066;28;20905;-69
2022/05/02 00:19:39;;;;;;;6.55;3.17;;;11.10;78.50;;;;;;4951776;28;20052;-69
2022/05/02 00:22:05;;;;;;;5.57;3.00;;;11.10;78.90;;;;;;4954529;28;20039;-69
2022/05/02 00:24:32;;;;;;;9.27;3.17;;;11.00;79.00;;;;;;4957289;28;20081;-69
2022/05/02 00:26:58;;;;;;;4.18;3.28;;;11.00;79.30;;;;;;4953073;28;20051;-70
2022/05/02 00:29:24;;;;;;;6.20;3.40;;;11.00;79.40;;;;;;4939016;28;20065;-69
2022/05/02 00:31:50;;;;;;;4.72;3.47;;;11.00;79.40;;;;;;4954772;28;20035;-69
2022/05/02 00:34:16;;;;;;;5.60;3.25;;;11.00;79.40;;;;;;4952968;28;20109;-69
2022/05/02 00:36:42;;;;;;;7.00;3.30;;;11.10;79.40;;;;;;4954841;28;20048;-68
2022/05/02 00:39:08;;;;;;;3.70;3.10;;;11.10;79.00;;;;;;4952783;28;20043;-69
2022/05/02 00:41:34;;;;;;;4.75;3.60;;;11.20;79.00;;;;;;4956294;28;20566;-69
2022/05/02 00:44:00;;;;;;;4.65;3.17;;;11.10;79.00;;;;;;4953279;28;20023;-69
2022/05/02 00:46:26;;;;;;;6.32;3.15;;;11.20;78.90;;;;;;4954382;28;20030;-69
2022/05/02 00:48:53;;;;;;;4.97;3.40;;;11.20;78.80;;;;;;4954139;28;20217;-70
2022/05/02 00:51:20;;;;;;;5.90;3.63;;;11.20;78.90;;;;;;4958332;28;20046;-70
2022/05/02 00:53:51;;;;;;;5.70;3.42;;;11.20;78.90;;;;;;4957841;28;20037;-70
2022/05/02 00:56:18;;;;;;;5.32;2.97;;;11.20;79.10;;;;;;4954630;28;20319;-70
2022/05/02 00:58:44;;;;;;;6.35;3.35;;;11.10;79.30;;;;;;4954602;28;20023;-69
2022/05/02 01:01:10;;;;;;;4.72;3.20;;;11.10;79.80;;;;;;4955382;28;20889;-69
2022/05/02 01:03:36;;;;;;;6.85;3.40;;;11.00;79.90;;;;;;4958095;28;20146;-70
2022/05/02 01:08:47;;;;;;;5.05;3.28;;;10.80;80.00;;;;;;4957935;28;20038;-69
2022/05/02 01:11:13;;;;;;;4.28;3.30;;;10.70;80.10;;;;;;4959435;28;20534;-70
2022/05/02 01:13:49;;;;;;;5.88;3.63;;;10.70;80.80;;;;;;4958633;28;20034;-69
2022/05/02 01:16:21;;;;;;;9.52;3.45;;;10.60;81.70;;;;;;4951511;28;20035;-69
2022/05/02 01:18:52;;;;;;;5.15;3.50;;;10.50;81.30;;;;;;4959131;28;20035;-69
2022/05/02 01:21:20;;;;;;;5.28;3.58;;;10.50;81.60;;;;;;4957546;28;20141;-69
2022/05/02 01:23:54;;;;;;;7.13;3.92;;;10.40;82.00;;;;;;4958405;28;20493;-69
2022/05/02 01:26:20;;;;;;;4.88;3.40;;;10.40;82.10;;;;;;4955046;28;20064;-69
2022/05/02 01:28:48;;;;;;;5.80;3.80;;;10.40;81.80;;;;;;4955288;28;20027;-69
2022/05/02 01:31:15;;;;;;;3.47;3.00;;;10.40;82.10;;;;;;4955927;28;20019;-69
2022/05/02 01:33:41;;;;;;;6.72;3.30;;;10.50;82.30;;;;;;4953313;28;20037;-69
2022/05/02 01:36:08;;;;;;;5.78;3.80;;;10.50;82.20;;;;;;4953880;28;20078;-69
2022/05/02 01:38:35;;;;;;;6.20;3.50;;;10.50;82.20;;;;;;4945286;28;20039;-69
2022/05/02 01:41:03;;;;;;;6.57;3.33;;;10.40;82.00;;;;;;4958241;28;20031;-70
2022/05/02 01:43:29;;;;;;;5.47;3.63;;;10.40;82.10;;;;;;4959127;28;20054;-71
2022/05/02 01:45:55;;;;;;;7.85;3.15;;;10.30;83.00;;;;;;4953878;28;20051;-71
2022/05/02 01:48:21;;;;;;;5.85;3.17;;;10.20;82.40;;;;;;4957059;28;20031;-70
2022/05/02 01:50:46;;;;;;;5.68;3.45;;;10.10;82.60;;;;;;4956481;28;20553;-71
2022/05/02 01:53:12;;;;;;;6.78;3.28;;;10.00;82.90;;;;;;4953748;28;20039;-71
2022/05/02 01:55:38;;;;;;;4.28;3.50;;;9.90;83.10;;;;;;4955820;28;20038;-71
2022/05/02 01:58:04;;;;;;;4.95;3.65;;;9.80;83.40;;;;;;4956796;28;20130;-70
2022/05/02 02:00:29;;;;;;;5.57;3.03;;;9.70;83.80;;;;;;4955188;28;20034;-69
2022/05/02 02:02:55;;;;;;;5.18;3.53;;;9.60;84.00;;;;;;4952799;28;20027;-69
2022/05/02 02:08:05;;;;;;;7.00;3.00;;;9.40;84.60;;;;;;4955877;28;20034;-71
2022/05/02 02:10:31;;;;;;;4.75;2.83;;;9.30;85.00;;;;;;4953506;28;20035;-69
2022/05/02 02:12:56;;;;;;;6.40;3.45;;;9.20;85.30;;;;;;4952638;28;20097;-69
2022/05/02 02:15:22;;;;;;;4.22;3.33;;;9.20;85.60;;;;;;4956164;28;20134;-71
2022/05/02 02:17:48;;;;;;;4.28;2.97;;;9.10;85.80;;;;;;4954137;28;20264;-71
2022/05/02 02:20:13;;;;;;;5.47;3.30;;;9.00;86.00;;;;;;4954258;28;20391;-70
2022/05/02 02:22:39;;;;;;;5.13;3.03;;;9.00;86.40;;;;;;4954981;28;20550;-71
2022/05/02 02:25:06;;;;;;;5.70;3.05;;;8.90;86.70;;;;;;4956685;28;20137;-71
2022/05/02 02:27:32;;;;;;;5.82;3.45;;;8.80;87.10;;;;;;4955253;28;20621;-71
2022/05/02 02:29:59;;;;;;;6.88;3.42;;;8.80;87.30;;;;;;4954147;28;20162;-71
2022/05/02 02:32:24;;;;;;;5.88;3.17;;;8.80;87.50;;;;;;4954965;28;20455;-71
2022/05/02 02:34:50;;;;;;;8.02;3.45;;;8.70;87.70;;;;;;4954949;28;20054;-72
2022/05/02 02:37:16;;;;;;;7.10;3.33;;;8.70;88.00;;;;;;4958712;28;20624;-71
2022/05/02 02:39:43;;;;;;;8.45;3.55;;;8.60;88.20;;;;;;4957997;28;20058;-70
2022/05/02 02:42:09;;;;;;;6.35;3.13;;;8.60;88.40;;;;;;4956611;28;20030;-71
2022/05/02 02:44:35;;;;;;;4.22;3.15;;;8.60;88.40;;;;;;4959992;28;20547;-71
2022/05/02 02:47:02;;;;;;;4.90;3.55;;;8.50;88.50;;;;;;4954600;28;20483;-71
2022/05/02 02:49:27;;;;;;;4.78;3.50;;;8.50;88.80;;;;;;4960224;28;20046;-71
2022/05/02 02:51:54;;;;;;;6.10;4.18;;;8.40;89.20;;;;;;4951168;28;20039;-71
2022/05/02 02:54:20;;;;;;;5.32;3.47;;;8.40;89.30;;;;;;4960659;28;20039;-71
2022/05/02 02:56:46;;;;;;;5.82;3.35;;;8.40;89.50;;;;;;4957636;28;20083;-71
2022/05/02 02:59:11;;;;;;;5.22;3.53;;;8.40;89.60;;;;;;4957352;28;20129;-71
2022/05/02 03:01:38;;;;;;;4.18;3.20;;;8.30;89.70;;;;;;4956004;28;20119;-71
2022/05/02 03:06:50;;;;;;;3.53;3.00;;;8.30;89.80;;;;;;4914861;28;20066;-70
2022/05/02 03:09:16;;;;;;;5.60;3.75;;;8.20;89.50;;;;;;4947649;28;20494;-69
2022/05/02 03:11:42;;;;;;;7.22;3.72;;;8.10;90.00;;;;;;4960339;28;20054;-71
2022/05/02 03:14:08;;;;;;;4.65;3.17;;;8.10;90.10;;;;;;4954667;28;20960;-71
2022/05/02 03:16:34;;;;;;;5.90;3.88;;;8.10;90.20;;;;;;4957999;28;20066;-71
2022/05/02 03:18:59;;;;;;;4.82;3.53;;;8.00;90.20;;;;;;4953146;28;20027;-71
2022/05/02 03:21:25;;;;;;;6.05;3.45;;;8.00;90.20;;;;;;4950660;28;20031;-71
2022/05/02 03:23:51;;;;;;;4.70;3.45;;;8.00;90.40;;;;;;4957243;28;20031;-71
2022/05/02 03:26:17;;;;;;;6.72;3.70;;;8.00;90.50;;;;;;4951354;28;20058;-71
2022/05/02 03:28:42;;;;;;;7.22;3.67;;;7.90;90.50;;;;;;4954704;28;20035;-71
2022/05/02 03:31:08;;;;;;;5.18;3.65;;;7.90;90.40;;;;;;4955417;28;20050;-71
2022/05/02 03:33:35;;;;;;;8.60;3.67;;;7.90;90.40;;;;;;4960880;28;20532;-71
2022/05/02 03:36:00;;;;;;;7.13;4.03;;;7.80;90.40;;;;;;4955777;28;20134;-70
2022/05/02 03:38:26;;;;;;;7.00;3.75;;;7.80;90.40;;;;;;4957384;28;20042;-71
2022/05/02 03:40:52;;;;;;;6.05;3.55;;;7.80;90.30;;;;;;4955276;28;20038;-71
2022/05/02 03:43:18;;;;;;;6.07;3.30;;;7.80;90.30;;;;;;4956582;28;20037;-71
2022/05/02 03:45:43;;;;;;;5.55;3.47;;;7.70;90.20;;;;;;4957676;28;20026;-71
2022/05/02 03:48:09;;;;;;;4.13;3.40;;;7.70;90.30;;;;;;4954719;28;20031;-70
2022/05/02 03:50:34;;;;;;;5.72;3.65;;;7.70;90.40;;;;;;4958100;28;20042;-70
2022/05/02 03:53:00;;;;;;;7.00;3.33;;;7.70;90.40;;;;;;4957577;28;20035;-70
2022/05/02 03:55:26;;;;;;;5.85;4.03;;;7.70;90.60;;;;;;4955238;28;20065;-70
2022/05/02 03:57:52;;;;;;;4.57;3.47;;;7.70;90.70;;;;;;4943333;28;20037;-70
2022/05/02 04:00:18;;;;;;;5.85;3.97;;;7.80;90.90;;;;;;4957568;28;20031;-70
2022/05/02 04:02:44;;;;;;;5.85;3.80;;;7.90;90.90;;;;;;4956520;28;20039;-70
2022/05/02 04:05:10;;;;;;;4.53;3.38;;;7.90;90.80;;;;;;4955260;28;20031;-70
2022/05/02 04:07:37;;;;;;;8.48;3.67;;;8.00;90.70;;;;;;4954548;28;20039;-70
2022/05/02 04:10:03;;;;;;;8.00;4.00;;;8.00;90.60;;;;;;4954056;28;20462;-70
2022/05/02 04:12:37;;;;;;;4.53;3.67;;;8.10;90.50;;;;;;4942083;28;20038;-70
2022/05/02 04:15:09;;;;;;;5.57;3.78;;;8.20;90.30;;;;;;4957753;28;20510;-70
2022/05/02 04:17:34;;;;;;;7.60;3.50;;;8.20;90.20;;;;;;4955612;28;20041;-70
2022/05/02 04:20:02;;;;;;;4.65;3.67;;;8.30;90.20;;;;;;4956879;28;20027;-70
2022/05/02 04:22:28;;;;;;;5.07;3.40;;;8.40;90.20;;;;;;4957472;28;20043;-70
2022/05/02 04:24:54;;;;;;;4.60;3.75;;;8.50;90.10;;;;;;4951921;28;20054;-70
2022/05/02 04:27:19;;;;;;;6.10;3.17;;;8.50;90.00;;;;;;4960546;28;20066;-70
2022/05/02 04:29:45;;;;;;;6.22;3.22;;;8.60;89.70;;;;;;4959134;28;20034;-70
2022/05/02 04:32:11;;;;;;;8.73;3.75;;;8.60;89.50;;;;;;4959756;28;20038;-70
2022/05/02 04:34:37;;;;;;;5.18;3.38;;;8.70;89.40;;;;;;4963404;28;20101;-70
2022/05/02 04:37:02;;;;;;;4.75;3.55;;;8.70;89.20;;;;;;4961377;28;20043;-70
2022/05/02 04:39:28;;;;;;;7.30;4.15;;;8.80;88.80;;;;;;4953955;28;20037;-70
2022/05/02 04:41:54;;;;;;;6.88;3.88;;;8.80;88.40;;;;;;4960098;28;20070;-70
2022/05/02 04:44:20;;;;;;;5.97;4.40;;;8.90;88.30;;;;;;4957294;28;20483;-70
2022/05/02 04:46:45;;;;;;;8.85;4.60;;;9.00;87.80;;;;;;4960217;28;20019;-70
2022/05/02 04:49:11;;;;;;;10.05;4.70;;;9.00;86.80;;;;;;4962262;28;20485;-70
2022/05/02 04:51:37;;;;;;;5.88;3.55;;;9.00;86.20;;;;;;4945720;28;20105;-70
2022/05/02 04:54:03;;;;;;;3.97;3.22;;;9.10;86.00;;;;;;4941432;28;20483;-70
2022/05/02 04:56:28;;;;;;;6.97;3.88;;;9.20;85.90;;;;;;4956392;28;20042;-69
2022/05/02 04:58:54;;;;;;;6.13;3.67;;;9.20;85.60;;;;;;4951508;28;20042;-70
2022/05/02 05:01:20;;;;;;;5.25;3.80;;;9.30;85.30;;;;;;4942106;28;20221;-69
2022/05/02 05:03:46;;;;;;;7.55;3.78;;;9.50;85.00;;;;;;4953863;28;20022;-69
2022/05/02 05:06:12;;;;;;;7.38;3.92;;;9.60;84.80;;;;;;4958289;28;20085;-70
2022/05/02 05:08:39;;;;;;;7.38;3.78;;;9.70;84.50;;;;;;4954219;28;20597;-70
2022/05/02 05:11:16;;;;;;;4.30;3.40;;;9.90;84.00;;;;;;4956130;28;20034;-70
2022/05/02 05:17:14;;;;;;;5.35;4.03;;;10.50;82.50;;;;;;4942436;28;20034;-70
2022/05/02 05:19:43;;;;;;;6.90;3.50;;;10.90;81.30;;;;;;4952220;28;20027;-70
2022/05/02 05:22:28;;;;;;;5.85;3.60;;;11.20;79.90;;;;;;4958822;28;20134;-70
2022/05/02 05:25:17;;;;;;;9.05;4.00;;;11.50;78.90;;;;;;4943398;28;20035;-70
2022/05/02 05:27:45;;;;;;;4.90;3.08;;;12.10;77.60;;;;;;4924082;28;20046;-70
2022/05/02 05:30:11;;;;;;;11.60;3.97;;;12.80;75.20;;;;;;4956441;28;20038;-70
2022/05/02 05:33:10;;;;;;;7.82;3.85;;;13.70;72.80;;;;;;4958509;28;20057;-70
2022/05/02 05:35:48;;;;;;;8.23;3.72;;;14.80;69.70;;;;;;4958046;28;20038;-70
2022/05/02 05:38:22;;;;;;;5.68;3.70;;;16.30;65.30;;;;;;4957624;28;20073;-70
2022/05/02 05:40:59;;;;;;;5.05;3.25;;;17.30;60.30;;;;;;4956955;28;20149;-70
2022/05/02 05:43:36;;;;;;;4.80;3.13;;;18.50;56.10;;;;;;4954211;28;20137;-70
2022/05/02 05:46:20;;;;;;;6.82;3.90;;;19.20;53.80;;;;;;4957919;28;20480;-70
2022/05/02 05:49:02;;;;;;;7.28;3.80;;;19.70;51.70;;;;;;4956127;28;20027;-71
2022/05/02 05:51:38;;;;;;;7.32;3.55;;;19.70;50.40;;;;;;4957287;28;20035;-71
2022/05/02 05:54:23;;;;;;;5.35;3.80;;;20.00;49.80;;;;;;4961078;28;20039;-69
2022/05/02 05:56:57;;;;;;;10.15;3.95;;;20.90;47.70;;;;;;4961545;28;20038;-69
2022/05/02 05:59:28;;;;;;;7.75;5.00;;;21.00;47.10;;;;;;4962231;28;20510;-70
2022/05/02 06:02:21;;;;;;;6.93;3.70;;;21.00;47.50;;;;;;4958365;28;20422;-70
2022/05/02 06:04:51;;;;;;;7.03;3.65;;;21.50;47.50;;;;;;4958881;28;20037;-70
2022/05/02 06:07:18;;;;;;;9.50;3.42;;;21.70;46.30;;;;;;4961255;28;20026;-70
2022/05/02 06:09:45;;;;;;;6.88;3.17;;;21.80;46.90;;;;;;4955177;28;20827;-69
2022/05/02 06:12:13;;;;;;;4.93;2.70;;;22.40;43.90;;;;;;4961331;28;20030;-70
2022/05/02 06:20:19;;;;;;;5.10;3.10;;;24.30;40.40;;;;;;4950225;28;20031;-68
2022/05/02 06:22:46;;;;;;;3.25;2.70;;;23.80;40.90;;;;;;4956382;28;20034;-70
2022/05/02 06:25:13;;;;;;;6.82;2.95;;;23.20;40.90;;;;;;4956002;28;20073;-70
2022/05/02 06:27:43;;;;;;;5.43;3.13;;;22.50;41.30;;;;;;4954276;28;20133;-70
2022/05/02 06:30:10;;;;;;;8.70;2.97;;;22.10;42.80;;;;;;4956244;28;20027;-69
2022/05/02 06:32:37;;;;;;;5.93;3.25;;;21.80;43.10;;;;;;4957239;28;20033;-69
2022/05/02 06:35:04;;;;;;;4.32;2.83;;;22.10;42.60;;;;;;4953896;28;20051;-70
2022/05/02 06:37:33;;;;;;;4.00;2.45;;;23.50;40.20;;;;;;4953331;28;20503;-69
2022/05/02 06:40:27;;;;;;;6.57;2.38;;;25.10;36.70;;;;;;4957879;28;20495;-73
2022/05/02 06:43:13;;;;;;;6.70;2.03;;;25.90;35.00;;;;;;4954733;28;20066;-70
2022/05/02 06:46:07;;;;;;;6.72;2.70;;;25.60;35.40;;;;;;4952009;28;20055;-69
2022/05/02 06:48:45;;;;;;;2.65;2.35;;;24.60;36.40;;;;;;4951387;28;20384;-69
2022/05/02 06:51:36;;;;;;;3.38;2.40;;;24.00;38.40;;;;;;4956147;28;20169;-70
2022/05/02 06:54:05;;;;;;;4.05;2.38;;;23.70;39.40;;;;;;4953072;28;20527;-68
2022/05/02 06:56:42;;;;;;;3.40;1.95;;;24.10;37.50;;;;;;4955595;28;20037;-68
2022/05/02 06:59:46;;;;;;;4.88;2.17;;;24.30;36.60;;;;;;4956273;28;20065;-69
2022/05/02 07:02:38;;;;;;;4.68;1.90;;;24.40;37.40;;;;;;4957934;28;20060;-69
2022/05/02 07:05:22;;;;;;;7.65;2.50;;;24.30;35.20;;;;;;4953519;28;20042;-64
2022/05/02 07:07:57;;;;;;;11.15;2.90;;;23.90;34.80;;;;;;4954331;28;20159;-75
2022/05/02 07:10:32;;;;;;;6.40;2.95;;;23.80;36.30;;;;;;4939329;28;20479;-75
2022/05/02 07:13:22;;;;;;;8.40;2.58;;;23.80;36.00;;;;;;4953063;28;20043;-75
2022/05/02 07:15:59;;;;;;;5.50;2.47;;;23.30;37.20;;;;;;4957184;28;20550;-75
2022/05/02 07:18:37;;;;;;;5.65;2.08;;;23.10;38.30;;;;;;4954589;28;20038;-75
2022/05/02 07:21:17;;;;;;;3.75;2.13;;;22.80;36.90;;;;;;4956603;28;20047;-74
2022/05/02 07:24:07;;;;;;;4.10;2.00;;;22.50;38.20;;;;;;4953678;28;20035;-73
2022/05/02 07:26:36;;;;;;;3.70;2.42;;;23.10;37.70;;;;;;4952960;28;20050;-69
2022/05/02 07:29:05;;;;;;;5.82;2.30;;;23.60;37.10;;;;;;4952584;28;20047;-70
2022/05/02 07:31:32;;;;;;;3.58;1.52;;;23.90;36.60;;;;;;4951137;28;20035;-70
2022/05/02 07:34:01;;;;;;;5.00;1.95;;;25.30;34.60;;;;;;4950914;28;20035;-69
2022/05/02 07:36:28;;;;;;;8.82;2.50;;;27.10;31.50;;;;;;4958802;28;20034;-64
2022/05/02 07:39:05;;;;;;;4.13;1.83;;;26.50;30.10;;;;;;4956594;28;20062;-73
2022/05/02 07:41:32;;;;;;;3.35;1.77;;;25.90;31.60;;;;;;4943251;28;20038;-73
2022/05/02 07:44:03;;;;;;;5.22;2.03;;;25.90;32.50;;;;;;4957744;28;20043;-73
2022/05/02 07:46:35;;;;;;;4.30;2.30;;;25.80;32.00;;;;;;4956754;28;20062;-75
2022/05/02 07:49:02;;;;;;;3.70;1.85;;;25.80;32.30;;;;;;4954563;28;20063;-72
2022/05/02 07:51:29;;;;;;;5.35;2.17;;;26.90;32.00;;;;;;4957093;28;20207;-72
2022/05/02 07:53:58;;;;;;;5.25;1.90;;;26.90;31.50;;;;;;4955888;28;20035;-72
2022/05/02 07:56:26;;;;;;;5.97;1.92;;;26.20;32.80;;;;;;4956292;28;20538;-72
2022/05/02 07:58:54;;;;;;;6.07;2.33;;;25.10;33.10;;;;;;4954346;28;20039;-71
2022/05/02 08:01:21;;;;;;;8.07;2.28;;;24.40;34.70;;;;;;4958495;28;20062;-72
2022/05/02 08:03:47;;;;;;;8.00;3.00;;;24.00;35.20;;;;;;4960353;28;20039;-71
2022/05/02 08:06:31;;;;;;;2.45;1.98;;;23.30;35.60;;;;;;4957976;28;20104;-72
2022/05/02 08:09:03;;;;;;;5.68;2.60;;;23.00;36.90;;;;;;4953189;28;20772;-73
2022/05/02 08:12:13;;;;;;;10.48;2.60;;;23.10;36.20;;;;;;4958173;28;20152;-73
2022/05/02 08:15:11;;;;;;;5.43;2.22;;;24.40;35.00;;;;;;4928548;28;20534;-72
2022/05/02 08:18:05;;;;;;;8.80;2.17;;;25.10;33.00;;;;;;4958745;28;20082;-72
2022/05/02 08:21:07;;;;;;;4.57;2.30;;;24.30;32.70;;;;;;4956297;28;20117;-73
2022/05/02 08:29:43;;;;;;;4.85;2.45;;;22.60;36.60;;;;;;4956263;28;20043;-73
2022/05/02 08:32:22;;;;;;;5.32;2.55;;;22.00;37.50;;;;;;4962954;28;20718;-73
2022/05/02 08:35:01;;;;;;;5.82;2.22;;;21.90;38.80;;;;;;4957068;28;20030;-73
2022/05/02 08:37:52;;;;;;;4.95;2.65;;;22.00;37.80;;;;;;4953003;28;20026;-71
2022/05/02 08:40:24;;;;;;;10.95;2.40;;;22.20;36.50;;;;;;4949075;28;20085;-72
2022/05/02 08:43:01;;;;;;;4.13;2.25;;;22.20;37.70;;;;;;4958416;28;20027;-71
2022/05/02 08:45:43;;;;;;;4.30;2.60;;;22.30;37.40;;;;;;4958143;28;20022;-73
2022/05/02 08:49:32;;;;;;;4.45;2.28;;;22.80;36.90;;;;;;4939022;28;20070;-71
2022/05/02 08:52:46;;;;;;;3.85;2.10;;;23.60;36.30;;;;;;4957716;28;20039;-73
2022/05/02 08:55:30;;;;;;;5.20;2.25;;;25.10;34.00;;;;;;4909698;29;21023;-73
2022/05/02 08:58:21;;;;;;;5.05;2.03;;;28.40;30.40;;;;;;4908279;29;20040;-74
2022/05/02 09:01:14;;;;;;;8.00;2.10;;;30.20;28.90;;;;;;4954846;28;20086;-78
2022/05/02 09:04:17;;;;;;;5.43;1.90;;;30.30;28.60;;;;;;4954052;28;20035;-75
2022/05/02 09:07:09;;;;;;;9.88;2.55;;;29.20;29.00;;;;;;4955624;28;20034;-74
2022/05/02 09:09:51;;;;;;;4.90;2.15;;;30.30;27.90;;;;;;4954671;28;20031;-74
2022/05/02 09:12:44;;;;;;;4.45;2.63;;;31.30;27.00;;;;;;4960111;28;20118;-74
2022/05/02 09:15:27;;;;;;;3.13;2.05;;;29.90;27.50;;;;;;4946098;28;20031;-74
2022/05/02 09:18:10;;;;;;;4.10;2.70;;;29.40;28.20;;;;;;4958851;28;20031;-75
2022/05/02 09:20:42;;;;;;;3.92;2.60;;;29.00;28.80;;;;;;4948569;28;20079;-74
2022/05/02 09:23:46;;;;;;;6.55;3.20;;;29.90;27.80;;;;;;4959456;28;20031;-74
2022/05/02 09:26:36;;;;;;;4.15;2.63;;;31.80;26.60;;;;;;4920486;28;20983;-74
2022/05/02 09:29:20;;;;;;;4.95;2.78;;;31.70;26.80;;;;;;4960061;28;20037;-75
2022/05/02 09:31:51;;;;;;;3.17;2.67;;;30.00;27.00;;;;;;4958699;28;20405;-74
2022/05/02 09:34:25;;;;;;;4.65;2.25;;;30.60;27.20;;;;;;4959215;28;20030;-75
2022/05/02 09:37:05;;;;;;;5.20;3.05;;;32.30;26.20;;;;;;4949238;28;20066;-75
2022/05/02 09:39:41;;;;;;;7.13;2.85;;;32.60;25.60;;;;;;4956670;28;20030;-75
2022/05/02 09:42:25;;;;;;;3.67;2.30;;;33.30;25.40;;;;;;4954855;28;20031;-74
2022/05/02 09:51:15;;;;;;;4.97;2.80;;;30.80;27.30;;;;;;4953524;28;20875;-74
2022/05/02 09:54:01;;;;;;;7.18;2.60;;;28.30;29.40;;;;;;4958304;28;20432;-74
2022/05/02 09:56:39;;;;;;;6.13;2.78;;;27.20;30.40;;;;;;4957774;28;20780;-75
2022/05/02 09:59:22;;;;;;;10.43;2.97;;;27.80;30.80;;;;;;4957428;28;20495;-74
2022/05/02 10:01:50;;;;;;;5.45;2.42;;;28.90;28.70;;;;;;4959680;28;20058;-74
2022/05/02 10:04:28;;;;;;;6.32;2.90;;;28.40;29.60;;;;;;4955582;28;20037;-70
2022/05/02 10:06:55;;;;;;;7.18;3.00;;;27.30;31.40;;;;;;4959366;28;20037;-72
2022/05/02 10:09:33;;;;;;;4.03;2.15;;;26.20;31.60;;;;;;4960310;28;20513;-73
2022/05/02 10:12:33;;;;;;;3.72;2.35;;;25.90;32.60;;;;;;4954982;28;20800;-74
2022/05/02 10:15:20;;;;;;;4.82;2.60;;;27.70;29.90;;;;;;4935375;28;20050;-74
2022/05/02 10:17:58;;;;;;;4.57;2.50;;;29.80;28.90;;;;;;4954959;28;20141;-74
2022/05/02 10:20:37;;;;;;;8.40;3.40;;;30.50;28.20;;;;;;4955165;28;20066;-73
2022/05/02 10:23:21;;;;;;;3.83;2.70;;;30.10;28.30;;;;;;4952525;28;20428;-73
2022/05/02 10:26:08;;;;;;;9.52;2.92;;;30.20;28.40;;;;;;4952950;28;20042;-74
2022/05/02 10:28:52;;;;;;;4.90;2.67;;;30.30;28.30;;;;;;4959941;28;20586;-73
2022/05/02 10:31:27;;;;;;;4.43;2.58;;;29.90;28.80;;;;;;4957277;28;20045;-71
2022/05/02 10:33:54;;;;;;;5.28;2.78;;;30.10;28.20;;;;;;4959007;28;20137;-71
2022/05/02 10:36:23;;;;;;;3.63;2.58;;;29.60;28.30;;;;;;4959353;28;20030;-72
2022/05/02 10:38:54;;;;;;;4.28;3.30;;;30.90;27.00;;;;;;4961367;28;20049;-71
2022/05/02 10:41:27;;;;;;;3.25;2.80;;;31.00;27.10;;;;;;4957951;28;20034;-71
2022/05/02 10:44:01;;;;;;;7.45;3.03;;;30.00;28.40;;;;;;4954284;28;20094;-71
2022/05/02 10:46:29;;;;;;;7.55;3.50;;;31.60;27.40;;;;;;4954691;28;20550;-71
2022/05/02 10:49:03;;;;;;;7.18;3.42;;;32.90;26.00;;;;;;4959641;28;20130;-71
2022/05/02 10:51:49;;;;;;;6.68;3.60;;;32.10;25.90;;;;;;4944390;28;20029;-73
2022/05/02 10:54:46;;;;;;;7.90;3.47;;;31.90;26.50;;;;;;4959416;28;20035;-71
2022/05/02 10:57:30;;;;;;;5.45;3.30;;;33.50;25.80;;;;;;4954726;28;20643;-72
2022/05/02 11:00:07;;;;;;;6.65;3.28;;;35.30;24.90;;;;;;4956688;28;20121;-72
2022/05/02 11:02:59;;;;;;;9.18;2.97;;;34.40;24.80;;;;;;4941915;28;20884;-71
2022/05/02 11:05:35;;;;;;;6.25;3.58;;;32.20;26.40;;;;;;4931838;28;20050;-72
2022/05/02 11:08:12;;;;;;;5.90;3.72;;;29.60;28.40;;;;;;4943201;28;20494;-72
2022/05/02 11:10:55;;;;;;;4.75;2.92;;;27.60;30.20;;;;;;4952578;28;20893;-71
2022/05/02 11:13:56;;;;;;;7.75;3.88;;;26.00;32.40;;;;;;4951216;28;20031;-72
2022/05/02 11:16:25;;;;;;;5.18;3.75;;;25.30;33.80;;;;;;4937354;28;20396;-69
2022/05/02 11:22:13;;;;;;;6.32;3.53;;;24.40;34.80;;;;;;4931029;28;20043;-71
2022/05/02 11:25:06;;;;;;;7.80;3.63;;;24.00;35.40;;;;;;4956233;28;20031;-70
2022/05/02 11:27:50;;;;;;;5.65;3.35;;;23.90;35.20;;;;;;4953208;28;20031;-71
2022/05/02 11:30:22;;;;;;;5.72;3.47;;;23.90;35.80;;;;;;4960173;28;20035;-71
2022/05/02 11:33:16;;;;;;;6.75;3.42;;;23.80;35.60;;;;;;4953516;28;20042;-78
2022/05/02 11:35:48;;;;;;;6.68;3.85;;;23.70;36.50;;;;;;4955540;28;20435;-72
2022/05/02 11:38:39;;;;;;;6.25;3.40;;;23.60;35.10;;;;;;4951505;28;20034;-71
2022/05/02 11:41:19;;;;;;;5.70;2.80;;;23.60;35.50;;;;;;4955186;28;20027;-71
2022/05/02 11:43:46;;;;;;;6.45;3.65;;;23.70;36.20;;;;;;4955790;28;20034;-71
2022/05/02 11:46:24;;;;;;;5.30;3.47;;;23.70;36.20;;;;;;4957135;28;20468;-71
2022/05/02 11:49:14;;;;;;;4.05;3.35;;;23.70;35.70;;;;;;4950247;28;20134;-72
2022/05/02 11:51:51;;;;;;;8.27;3.63;;;23.70;35.20;;;;;;4934522;28;20027;-68
2022/05/02 11:54:20;;;;;;;5.68;3.70;;;23.50;35.70;;;;;;4953307;28;20601;-72
2022/05/02 11:56:59;;;;;;;7.43;3.45;;;23.40;37.20;;;;;;4953559;28;20434;-72
2022/05/02 11:59:35;;;;;;;7.72;3.10;;;23.10;37.50;;;;;;4955062;28;20031;-72
2022/05/02 12:02:04;;;;;;;4.85;3.50;;;23.20;38.20;;;;;;4954280;28;20034;-72
2022/05/02 12:04:40;;;;;;;5.28;3.78;;;23.20;37.60;;;;;;4954623;28;20030;-72
2022/05/02 12:07:13;;;;;;;7.85;4.20;;;23.20;37.70;;;;;;4957091;28;20484;-72
2022/05/02 12:09:41;;;;;;;7.28;3.13;;;23.00;37.30;;;;;;4953547;28;20046;-72
2022/05/02 12:12:09;;;;;;;7.70;3.92;;;22.90;37.70;;;;;;4955647;28;20574;-72
2022/05/02 12:14:36;;;;;;;4.72;2.92;;;22.60;38.30;;;;;;4957596;28;20038;-72
2022/05/02 12:17:06;;;;;;;5.75;3.00;;;22.20;39.10;;;;;;4957802;28;20530;-72
2022/05/02 12:19:33;;;;;;;4.55;3.00;;;22.10;39.50;;;;;;4952826;28;20058;-72
2022/05/02 12:22:15;;;;;;;9.80;3.95;;;22.10;39.40;;;;;;4956605;28;20039;-72
2022/05/02 12:24:45;;;;;;;3.95;3.13;;;22.20;38.40;;;;;;4953103;28;20034;-72
2022/05/02 12:27:14;;;;;;;5.90;3.83;;;22.30;38.10;;;;;;4954819;28;20030;-72
2022/05/02 12:29:44;;;;;;;7.20;4.35;;;22.50;37.70;;;;;;4958352;28;20088;-72
2022/05/02 12:32:14;;;;;;;5.40;3.67;;;22.50;37.60;;;;;;4956945;28;20046;-72
2022/05/02 12:34:42;;;;;;;8.88;4.25;;;22.30;38.60;;;;;;4952856;28;20054;-72
2022/05/02 12:37:23;;;;;;;5.75;3.53;;;22.10;38.00;;;;;;4955517;28;20043;-72
2022/05/02 12:40:22;;;;;;;6.32;4.05;;;22.10;38.70;;;;;;4955332;28;20031;-72
2022/05/02 12:42:56;;;;;;;6.75;3.33;;;22.20;39.10;;;;;;4954432;28;20023;-72
2022/05/02 12:45:24;;;;;;;7.60;3.72;;;22.30;39.40;;;;;;4956718;28;20058;-72
2022/05/02 12:47:53;;;;;;;5.30;3.95;;;22.50;38.90;;;;;;4955627;28;20031;-72
2022/05/02 12:50:25;;;;;;;7.40;4.63;;;22.50;38.00;;;;;;4953174;28;20039;-72
2022/05/02 12:52:54;;;;;;;8.75;5.43;;;22.40;38.60;;;;;;4957185;28;20035;-72
2022/05/02 12:55:30;;;;;;;8.82;5.53;;;22.30;37.90;;;;;;4961429;28;20038;-71
2022/05/02 13:00:44;;;;;;;8.63;4.07;;;22.10;39.80;;;;;;4959851;28;20519;-72
2022/05/02 13:03:14;;;;;;;9.93;4.53;;;22.10;39.30;;;;;;4954668;28;20043;-72
2022/05/02 13:05:46;;;;;;;4.57;3.70;;;22.10;39.80;;;;;;4953651;28;20033;-72
2022/05/02 13:08:11;;;;;;;10.32;6.60;;;22.10;39.20;;;;;;4955265;28;20054;-72
2022/05/02 13:10:41;;;;;;;4.88;3.50;;;22.10;38.50;;;;;;4955862;28;20809;-71
2022/05/02 13:13:12;;;;;;;5.75;3.85;;;22.00;38.60;;;;;;4956484;28;20154;-72
2022/05/02 13:15:41;;;;;;;10.80;4.80;;;21.90;40.10;;;;;;4957177;28;20049;-72
2022/05/02 13:18:21;;;;;;;12.05;5.10;;;21.90;40.20;;;;;;4939279;28;20035;-71
2022/05/02 13:21:12;;;;;;;5.15;3.22;;;22.00;40.40;;;;;;4953539;28;20030;-71
2022/05/02 13:23:46;;;;;;;6.50;3.50;;;21.90;40.50;;;;;;4958063;28;20114;-72
2022/05/02 13:26:28;;;;;;;4.13;2.58;;;21.90;39.70;;;;;;4956822;28;20030;-72
2022/05/02 13:29:15;;;;;;;5.50;3.33;;;21.80;40.60;;;;;;4959081;28;20035;-72
2022/05/02 13:31:47;;;;;;;4.13;3.10;;;21.80;40.30;;;;;;4956573;28;20687;-73
2022/05/02 13:34:27;;;;;;;6.00;2.75;;;21.80;40.60;;;;;;4959643;28;20043;-72
2022/05/02 13:37:03;;;;;;;8.15;3.00;;;21.90;40.80;;;;;;4956963;28;20045;-71
2022/05/02 13:39:59;;;;;;;5.55;3.50;;;21.90;40.70;;;;;;4953809;28;20042;-72
2022/05/02 13:43:02;;;;;;;4.45;2.97;;;21.90;40.10;;;;;;4952965;28;20415;-72
2022/05/02 13:46:01;;;;;;;4.40;2.50;;;21.90;40.90;;;;;;4957805;28;20805;-71
2022/05/02 13:48:29;;;;;;;6.88;3.30;;;22.00;40.50;;;;;;4923431;28;20034;-70
2022/05/02 13:51:19;;;;;;;6.63;3.72;;;22.00;40.00;;;;;;4951474;28;20016;-69
2022/05/02 13:53:55;;;;;;;7.07;3.33;;;21.90;40.70;;;;;;4957929;28;20019;-69
2022/05/02 13:56:43;;;;;;;;;;;21.90;41.00;;;;;;4957353;28;20093;-69
2022/05/02 13:59:20;;;;;;;6.13;2.60;;;22.00;40.50;;;;;;4955536;28;19930;-69